Monday, August 21, 2017, 8:05 AM EDT
Back to Local

KCXY, Harrisburg Capital City

Location: New Cumberland, PA, United States Lat: 40.217
Local Time: 8:05 AM EDT (12:05 GMT) Lon: -76.85
Time Zone: US/Eastern Elev: 347 ft

Show me the last for .
Show Decoded

2017-08-21 06:56 METAR KCXY 211056Z 10003KT 9SM SCT100 20/18 A3020 RMK AO2 SLP226 T02000178 =
2017-08-21 05:56 METAR KCXY 210956Z AUTO 08004KT 9SM CLR 19/17 A3020 RMK AO2 SLP224 T01940172 =
2017-08-21 04:56 METAR KCXY 210856Z AUTO 23003KT 10SM CLR 18/16 A3019 RMK AO2 SLP223 T01830161
                 53003 =
2017-08-21 03:56 METAR KCXY 210756Z AUTO 00000KT 10SM CLR 18/16 A3018 RMK AO2 SLP219 T01830161 =
2017-08-21 02:56 METAR KCXY 210656Z AUTO 00000KT 10SM CLR 19/17 A3019 RMK AO2 SLP220 T01890167 =
2017-08-21 01:56 METAR KCXY 210556Z AUTO 00000KT 10SM CLR 19/17 A3018 RMK AO2 SLP219 T01940167
                 10256 20189 50001 =
2017-08-21 00:56 METAR KCXY 210456Z AUTO 24003KT 10SM CLR 19/17 A3019 RMK AO2 SLP222 T01940167
                 402940172 =
2017-08-20 23:56 METAR KCXY 210356Z AUTO 00000KT 10SM CLR 20/17 A3019 RMK AO2 SLP222 T02000172 =
2017-08-20 22:56 METAR KCXY 210256Z AUTO 25003KT 10SM CLR 21/17 A3018 RMK AO2 SLP219 T02060167
                 51019 =
2017-08-20 21:56 METAR KCXY 210156Z AUTO 25003KT 10SM CLR 22/16 A3017 RMK AO2 SLP215 T02170161 =
2017-08-20 20:56 METAR KCXY 210056Z 00000KT 10SM CLR 23/17 A3014 RMK AO2 SLP206 T02280172 =
2017-08-20 19:56 METAR KCXY 202356Z 00000KT 10SM CLR 26/18 A3012 RMK AO2 SLP200 60000 T02560178
                 10294 20250 53004 =
2017-08-20 18:56 METAR KCXY 202256Z VRB03KT 10SM FEW060 28/16 A3011 RMK AO2 RAB27E36 SLP194 P0000
                 T02780156 =
2017-08-20 17:56 METAR KCXY 202156Z 35005KT 10SM FEW060 29/14 A3011 RMK AO2 SLP193 T02940139 =
2017-08-20 16:56 METAR KCXY 202056Z 00000KT 10SM SCT055 29/14 A3011 RMK AO2 SLP195 T02890139
                 56007 =
2017-08-20 15:56 METAR KCXY 201956Z 36006KT 10SM FEW045 29/14 A3011 RMK AO2 SLP197 T02890144 =
2017-08-20 14:56 METAR KCXY 201856Z 35006KT 10SM FEW064 29/13 A3012 RMK AO2 SLP198 T02890133 =
2017-08-20 13:56 METAR KCXY 201756Z 30005KT 10SM CLR 28/15 A3013 RMK AO2 SLP203 T02780150 10283
                 20200 50000 =
2017-08-20 12:56 METAR KCXY 201656Z 32007KT 10SM CLR 27/15 A3015 RMK AO2 SLP208 T02720150 =
2017-08-20 11:56 METAR KCXY 201556Z 35007KT 10SM CLR 26/14 A3014 RMK AO2 SLP204 T02610144 =
2017-08-20 10:56 METAR KCXY 201456Z 33007KT 10SM CLR 25/14 A3013 RMK AO2 SLP203 T02500144 53010 =
2017-08-20 09:56 METAR KCXY 201356Z 29007KT 10SM CLR 23/14 A3012 RMK AO2 SLP199 T02330144 =
2017-08-20 08:56 METAR KCXY 201256Z 26006KT 10SM CLR 22/15 A3011 RMK AO2 SLP195 T02170150 =

Support USWX by starting your Amazon purchase here.